sensor_id;sensor_type;location;lat;lon;timestamp;P1;durP1;ratioP1;P2;durP2;ratioP2
77586;SDS011;66744;49.716;17.158;2023-04-06T00:01:59;15.80;;;9.93;;
77586;SDS011;66744;49.716;17.158;2023-04-06T00:05:01;17.27;;;10.20;;
77586;SDS011;66744;49.716;17.158;2023-04-06T00:08:04;21.95;;;10.15;;
77586;SDS011;66744;49.716;17.158;2023-04-06T00:14:06;17.48;;;8.82;;
77586;SDS011;66744;49.716;17.158;2023-04-06T00:17:08;17.10;;;9.38;;
77586;SDS011;66744;49.716;17.158;2023-04-06T00:20:16;15.10;;;8.93;;
77586;SDS011;66744;49.716;17.158;2023-04-06T00:23:18;16.85;;;9.32;;
77586;SDS011;66744;49.716;17.158;2023-04-06T00:29:22;18.02;;;9.35;;
77586;SDS011;66744;49.716;17.158;2023-04-06T00:32:26;13.15;;;8.10;;
77586;SDS011;66744;49.716;17.158;2023-04-06T00:35:28;20.08;;;9.25;;
77586;SDS011;66744;49.716;17.158;2023-04-06T00:38:29;15.18;;;9.43;;
77586;SDS011;66744;49.716;17.158;2023-04-06T00:41:34;15.18;;;9.10;;
77586;SDS011;66744;49.716;17.158;2023-04-06T00:44:35;16.02;;;9.38;;
77586;SDS011;66744;49.716;17.158;2023-04-06T00:50:46;19.10;;;10.13;;
77586;SDS011;66744;49.716;17.158;2023-04-06T00:56:49;17.52;;;8.57;;
77586;SDS011;66744;49.716;17.158;2023-04-06T00:59:51;13.35;;;8.32;;
77586;SDS011;66744;49.716;17.158;2023-04-06T01:02:53;20.33;;;9.40;;
77586;SDS011;66744;49.716;17.158;2023-04-06T01:05:58;17.58;;;8.77;;
77586;SDS011;66744;49.716;17.158;2023-04-06T01:09:05;15.68;;;9.35;;
77586;SDS011;66744;49.716;17.158;2023-04-06T01:12:07;16.90;;;8.10;;
77586;SDS011;66744;49.716;17.158;2023-04-06T01:15:09;18.27;;;8.15;;
77586;SDS011;66744;49.716;17.158;2023-04-06T01:18:15;16.42;;;8.82;;
77586;SDS011;66744;49.716;17.158;2023-04-06T01:21:23;18.83;;;10.48;;
77586;SDS011;66744;49.716;17.158;2023-04-06T01:24:46;18.30;;;9.07;;
77586;SDS011;66744;49.716;17.158;2023-04-06T01:27:57;16.55;;;9.27;;
77586;SDS011;66744;49.716;17.158;2023-04-06T01:31:08;20.02;;;8.85;;
77586;SDS011;66744;49.716;17.158;2023-04-06T01:34:23;19.77;;;9.98;;
77586;SDS011;66744;49.716;17.158;2023-04-06T01:37:25;21.23;;;9.15;;
77586;SDS011;66744;49.716;17.158;2023-04-06T01:40:29;12.40;;;7.22;;
77586;SDS011;66744;49.716;17.158;2023-04-06T01:43:31;18.23;;;9.88;;
77586;SDS011;66744;49.716;17.158;2023-04-06T01:46:44;18.90;;;9.23;;
77586;SDS011;66744;49.716;17.158;2023-04-06T01:49:51;18.83;;;10.90;;
77586;SDS011;66744;49.716;17.158;2023-04-06T01:52:52;19.88;;;9.98;;
77586;SDS011;66744;49.716;17.158;2023-04-06T01:55:54;17.08;;;9.45;;
77586;SDS011;66744;49.716;17.158;2023-04-06T01:58:59;16.10;;;8.23;;
77586;SDS011;66744;49.716;17.158;2023-04-06T02:02:07;17.25;;;9.43;;
77586;SDS011;66744;49.716;17.158;2023-04-06T02:05:09;18.00;;;10.43;;
77586;SDS011;66744;49.716;17.158;2023-04-06T02:08:12;21.55;;;11.57;;
77586;SDS011;66744;49.716;17.158;2023-04-06T02:11:14;19.27;;;8.88;;
77586;SDS011;66744;49.716;17.158;2023-04-06T02:14:20;17.23;;;10.70;;
77586;SDS011;66744;49.716;17.158;2023-04-06T02:17:26;19.75;;;9.68;;
77586;SDS011;66744;49.716;17.158;2023-04-06T02:20:27;20.90;;;10.70;;
77586;SDS011;66744;49.716;17.158;2023-04-06T02:26:31;21.50;;;11.02;;
77586;SDS011;66744;49.716;17.158;2023-04-06T02:29:32;18.50;;;9.48;;
77586;SDS011;66744;49.716;17.158;2023-04-06T02:32:34;22.10;;;11.98;;
77586;SDS011;66744;49.716;17.158;2023-04-06T02:35:36;19.17;;;10.75;;
77586;SDS011;66744;49.716;17.158;2023-04-06T02:38:37;22.98;;;11.63;;
77586;SDS011;66744;49.716;17.158;2023-04-06T02:41:39;19.10;;;10.65;;
77586;SDS011;66744;49.716;17.158;2023-04-06T02:44:41;18.80;;;11.15;;
77586;SDS011;66744;49.716;17.158;2023-04-06T02:47:44;23.42;;;11.98;;
77586;SDS011;66744;49.716;17.158;2023-04-06T02:50:48;16.98;;;10.27;;
77586;SDS011;66744;49.716;17.158;2023-04-06T02:53:50;16.85;;;10.43;;
77586;SDS011;66744;49.716;17.158;2023-04-06T02:56:52;22.17;;;11.18;;
77586;SDS011;66744;49.716;17.158;2023-04-06T02:59:54;19.98;;;11.27;;
77586;SDS011;66744;49.716;17.158;2023-04-06T03:03:03;17.05;;;9.32;;
77586;SDS011;66744;49.716;17.158;2023-04-06T03:06:05;20.23;;;11.85;;
77586;SDS011;66744;49.716;17.158;2023-04-06T03:09:07;22.45;;;11.65;;
77586;SDS011;66744;49.716;17.158;2023-04-06T03:15:23;15.80;;;9.85;;
77586;SDS011;66744;49.716;17.158;2023-04-06T03:18:34;22.65;;;11.23;;
77586;SDS011;66744;49.716;17.158;2023-04-06T03:24:37;15.20;;;10.27;;
77586;SDS011;66744;49.716;17.158;2023-04-06T03:27:40;21.65;;;12.25;;
77586;SDS011;66744;49.716;17.158;2023-04-06T03:30:46;17.98;;;10.27;;
77586;SDS011;66744;49.716;17.158;2023-04-06T03:33:50;19.67;;;10.43;;
77586;SDS011;66744;49.716;17.158;2023-04-06T03:36:57;20.23;;;10.77;;
77586;SDS011;66744;49.716;17.158;2023-04-06T03:39:59;17.65;;;9.52;;
77586;SDS011;66744;49.716;17.158;2023-04-06T03:43:00;20.60;;;11.52;;
77586;SDS011;66744;49.716;17.158;2023-04-06T03:46:05;20.33;;;10.32;;
77586;SDS011;66744;49.716;17.158;2023-04-06T03:52:08;19.10;;;10.20;;
77586;SDS011;66744;49.716;17.158;2023-04-06T03:55:13;17.30;;;9.95;;
77586;SDS011;66744;49.716;17.158;2023-04-06T03:58:14;15.40;;;9.60;;
77586;SDS011;66744;49.716;17.158;2023-04-06T04:01:16;22.60;;;10.63;;
77586;SDS011;66744;49.716;17.158;2023-04-06T04:04:22;17.85;;;9.75;;
77586;SDS011;66744;49.716;17.158;2023-04-06T04:07:23;17.52;;;9.13;;
77586;SDS011;66744;49.716;17.158;2023-04-06T04:10:25;20.50;;;10.82;;
77586;SDS011;66744;49.716;17.158;2023-04-06T04:13:26;15.85;;;9.45;;
77586;SDS011;66744;49.716;17.158;2023-04-06T04:16:27;15.75;;;8.48;;
77586;SDS011;66744;49.716;17.158;2023-04-06T04:19:29;16.10;;;9.40;;
77586;SDS011;66744;49.716;17.158;2023-04-06T04:22:31;20.63;;;10.25;;
77586;SDS011;66744;49.716;17.158;2023-04-06T04:25:34;21.23;;;10.35;;
77586;SDS011;66744;49.716;17.158;2023-04-06T04:31:36;17.02;;;9.27;;
77586;SDS011;66744;49.716;17.158;2023-04-06T04:34:41;15.23;;;9.45;;
77586;SDS011;66744;49.716;17.158;2023-04-06T04:37:47;20.17;;;10.43;;
77586;SDS011;66744;49.716;17.158;2023-04-06T04:40:50;18.98;;;10.77;;
77586;SDS011;66744;49.716;17.158;2023-04-06T04:43:51;24.45;;;9.05;;
77586;SDS011;66744;49.716;17.158;2023-04-06T04:46:56;16.90;;;8.35;;
77586;SDS011;66744;49.716;17.158;2023-04-06T04:50:08;20.00;;;9.82;;
77586;SDS011;66744;49.716;17.158;2023-04-06T04:53:13;33.42;;;18.00;;
77586;SDS011;66744;49.716;17.158;2023-04-06T04:56:17;30.15;;;13.27;;
77586;SDS011;66744;49.716;17.158;2023-04-06T04:59:21;15.52;;;9.73;;
77586;SDS011;66744;49.716;17.158;2023-04-06T05:02:29;15.70;;;9.13;;
77586;SDS011;66744;49.716;17.158;2023-04-06T05:05:47;20.85;;;9.95;;
77586;SDS011;66744;49.716;17.158;2023-04-06T05:08:51;17.90;;;9.57;;
77586;SDS011;66744;49.716;17.158;2023-04-06T05:11:52;14.35;;;8.05;;
77586;SDS011;66744;49.716;17.158;2023-04-06T05:14:55;15.38;;;9.43;;
77586;SDS011;66744;49.716;17.158;2023-04-06T05:17:58;16.27;;;7.97;;
77586;SDS011;66744;49.716;17.158;2023-04-06T05:21:06;15.25;;;8.60;;
77586;SDS011;66744;49.716;17.158;2023-04-06T05:24:25;13.05;;;8.05;;
77586;SDS011;66744;49.716;17.158;2023-04-06T05:27:26;15.40;;;8.50;;
77586;SDS011;66744;49.716;17.158;2023-04-06T05:30:28;14.85;;;8.82;;
77586;SDS011;66744;49.716;17.158;2023-04-06T05:33:30;14.85;;;9.13;;
77586;SDS011;66744;49.716;17.158;2023-04-06T05:36:44;13.25;;;7.88;;
77586;SDS011;66744;49.716;17.158;2023-04-06T05:39:53;16.10;;;8.18;;
77586;SDS011;66744;49.716;17.158;2023-04-06T05:42:56;13.32;;;7.22;;
77586;SDS011;66744;49.716;17.158;2023-04-06T05:45:57;11.52;;;6.43;;
77586;SDS011;66744;49.716;17.158;2023-04-06T05:48:58;12.35;;;6.95;;
77586;SDS011;66744;49.716;17.158;2023-04-06T05:52:04;11.98;;;6.72;;
77586;SDS011;66744;49.716;17.158;2023-04-06T05:55:07;9.55;;;6.78;;
77586;SDS011;66744;49.716;17.158;2023-04-06T05:58:08;14.20;;;7.82;;
77586;SDS011;66744;49.716;17.158;2023-04-06T06:01:10;15.10;;;7.10;;
77586;SDS011;66744;49.716;17.158;2023-04-06T06:04:16;12.15;;;6.88;;
77586;SDS011;66744;49.716;17.158;2023-04-06T06:07:19;14.23;;;7.47;;
77586;SDS011;66744;49.716;17.158;2023-04-06T06:10:30;14.70;;;6.80;;
77586;SDS011;66744;49.716;17.158;2023-04-06T06:13:32;15.27;;;6.80;;
77586;SDS011;66744;49.716;17.158;2023-04-06T06:16:34;10.30;;;6.70;;
77586;SDS011;66744;49.716;17.158;2023-04-06T06:19:37;11.30;;;6.25;;
77586;SDS011;66744;49.716;17.158;2023-04-06T06:22:41;12.10;;;7.15;;
77586;SDS011;66744;49.716;17.158;2023-04-06T06:25:47;10.40;;;5.70;;
77586;SDS011;66744;49.716;17.158;2023-04-06T06:28:49;14.10;;;6.47;;
77586;SDS011;66744;49.716;17.158;2023-04-06T06:31:50;10.15;;;7.05;;
77586;SDS011;66744;49.716;17.158;2023-04-06T06:34:52;17.20;;;7.65;;
77586;SDS011;66744;49.716;17.158;2023-04-06T06:37:54;9.73;;;5.90;;
77586;SDS011;66744;49.716;17.158;2023-04-06T06:40:59;11.23;;;5.90;;
77586;SDS011;66744;49.716;17.158;2023-04-06T06:44:04;10.55;;;6.40;;
77586;SDS011;66744;49.716;17.158;2023-04-06T06:47:06;11.55;;;7.18;;
77586;SDS011;66744;49.716;17.158;2023-04-06T06:50:11;10.23;;;5.70;;
77586;SDS011;66744;49.716;17.158;2023-04-06T06:53:12;10.75;;;6.45;;
77586;SDS011;66744;49.716;17.158;2023-04-06T06:56:13;11.73;;;6.85;;
77586;SDS011;66744;49.716;17.158;2023-04-06T06:59:16;13.57;;;6.45;;
77586;SDS011;66744;49.716;17.158;2023-04-06T07:02:17;12.38;;;7.18;;
77586;SDS011;66744;49.716;17.158;2023-04-06T07:05:18;13.70;;;7.97;;
77586;SDS011;66744;49.716;17.158;2023-04-06T07:08:21;11.40;;;5.88;;
77586;SDS011;66744;49.716;17.158;2023-04-06T07:11:23;10.25;;;7.03;;
77586;SDS011;66744;49.716;17.158;2023-04-06T07:14:25;12.95;;;6.18;;
77586;SDS011;66744;49.716;17.158;2023-04-06T07:17:27;11.20;;;6.25;;
77586;SDS011;66744;49.716;17.158;2023-04-06T07:20:29;9.40;;;6.13;;
77586;SDS011;66744;49.716;17.158;2023-04-06T07:23:33;11.02;;;6.47;;
77586;SDS011;66744;49.716;17.158;2023-04-06T07:26:35;8.98;;;6.35;;
77586;SDS011;66744;49.716;17.158;2023-04-06T07:29:39;12.93;;;6.53;;
77586;SDS011;66744;49.716;17.158;2023-04-06T07:32:41;9.63;;;5.80;;
77586;SDS011;66744;49.716;17.158;2023-04-06T07:35:43;8.15;;;5.22;;
77586;SDS011;66744;49.716;17.158;2023-04-06T07:38:46;9.80;;;5.90;;
77586;SDS011;66744;49.716;17.158;2023-04-06T07:41:48;9.68;;;6.10;;
77586;SDS011;66744;49.716;17.158;2023-04-06T07:44:50;8.57;;;5.53;;
77586;SDS011;66744;49.716;17.158;2023-04-06T07:47:52;11.07;;;6.18;;
77586;SDS011;66744;49.716;17.158;2023-04-06T07:51:00;9.40;;;5.95;;
77586;SDS011;66744;49.716;17.158;2023-04-06T07:54:02;13.38;;;7.32;;
77586;SDS011;66744;49.716;17.158;2023-04-06T07:57:03;8.63;;;5.70;;
77586;SDS011;66744;49.716;17.158;2023-04-06T08:00:05;9.50;;;5.70;;
77586;SDS011;66744;49.716;17.158;2023-04-06T08:03:13;11.45;;;6.35;;
77586;SDS011;66744;49.716;17.158;2023-04-06T08:06:14;10.05;;;4.78;;
77586;SDS011;66744;49.716;17.158;2023-04-06T08:09:16;11.85;;;6.05;;
77586;SDS011;66744;49.716;17.158;2023-04-06T08:12:17;10.88;;;7.18;;
77586;SDS011;66744;49.716;17.158;2023-04-06T08:15:18;9.20;;;5.35;;
77586;SDS011;66744;49.716;17.158;2023-04-06T08:18:20;9.63;;;4.75;;
77586;SDS011;66744;49.716;17.158;2023-04-06T08:21:21;8.93;;;4.88;;
77586;SDS011;66744;49.716;17.158;2023-04-06T08:24:22;7.88;;;5.28;;
77586;SDS011;66744;49.716;17.158;2023-04-06T08:27:23;8.57;;;4.63;;
77586;SDS011;66744;49.716;17.158;2023-04-06T08:30:25;6.93;;;4.57;;
77586;SDS011;66744;49.716;17.158;2023-04-06T08:33:26;9.27;;;4.78;;
77586;SDS011;66744;49.716;17.158;2023-04-06T08:36:27;8.63;;;5.05;;
77586;SDS011;66744;49.716;17.158;2023-04-06T08:39:28;10.75;;;4.70;;
77586;SDS011;66744;49.716;17.158;2023-04-06T08:42:32;8.40;;;5.57;;
77586;SDS011;66744;49.716;17.158;2023-04-06T08:45:35;9.43;;;4.60;;
77586;SDS011;66744;49.716;17.158;2023-04-06T08:48:36;5.20;;;4.10;;
77586;SDS011;66744;49.716;17.158;2023-04-06T08:51:39;6.15;;;3.88;;
77586;SDS011;66744;49.716;17.158;2023-04-06T08:54:42;8.20;;;4.57;;
77586;SDS011;66744;49.716;17.158;2023-04-06T08:57:43;7.82;;;5.30;;
77586;SDS011;66744;49.716;17.158;2023-04-06T09:00:47;7.82;;;4.85;;
77586;SDS011;66744;49.716;17.158;2023-04-06T09:03:48;6.38;;;4.57;;
77586;SDS011;66744;49.716;17.158;2023-04-06T09:06:51;6.65;;;4.35;;
77586;SDS011;66744;49.716;17.158;2023-04-06T09:09:54;8.68;;;4.70;;
77586;SDS011;66744;49.716;17.158;2023-04-06T09:13:02;5.80;;;4.32;;
77586;SDS011;66744;49.716;17.158;2023-04-06T09:16:06;7.50;;;4.65;;
77586;SDS011;66744;49.716;17.158;2023-04-06T09:19:07;6.95;;;4.25;;
77586;SDS011;66744;49.716;17.158;2023-04-06T09:22:09;6.20;;;4.78;;
77586;SDS011;66744;49.716;17.158;2023-04-06T09:25:18;5.30;;;4.10;;
77586;SDS011;66744;49.716;17.158;2023-04-06T09:28:21;6.68;;;4.80;;
77586;SDS011;66744;49.716;17.158;2023-04-06T09:31:23;5.53;;;4.20;;
77586;SDS011;66744;49.716;17.158;2023-04-06T09:34:33;7.32;;;4.30;;
77586;SDS011;66744;49.716;17.158;2023-04-06T09:37:39;7.30;;;4.35;;
77586;SDS011;66744;49.716;17.158;2023-04-06T09:40:50;7.03;;;4.53;;
77586;SDS011;66744;49.716;17.158;2023-04-06T09:44:01;7.93;;;3.95;;
77586;SDS011;66744;49.716;17.158;2023-04-06T09:47:09;8.32;;;5.72;;
77586;SDS011;66744;49.716;17.158;2023-04-06T09:50:11;8.10;;;5.65;;
77586;SDS011;66744;49.716;17.158;2023-04-06T09:53:35;10.23;;;5.43;;
77586;SDS011;66744;49.716;17.158;2023-04-06T10:00:21;7.60;;;5.05;;
77586;SDS011;66744;49.716;17.158;2023-04-06T10:03:29;8.23;;;5.88;;
77586;SDS011;66744;49.716;17.158;2023-04-06T10:06:39;7.07;;;5.07;;
77586;SDS011;66744;49.716;17.158;2023-04-06T10:09:40;9.07;;;5.38;;
77586;SDS011;66744;49.716;17.158;2023-04-06T10:12:46;10.70;;;6.25;;
77586;SDS011;66744;49.716;17.158;2023-04-06T10:15:51;9.13;;;6.50;;
77586;SDS011;66744;49.716;17.158;2023-04-06T10:18:55;8.05;;;5.43;;
77586;SDS011;66744;49.716;17.158;2023-04-06T10:22:02;8.52;;;4.55;;
77586;SDS011;66744;49.716;17.158;2023-04-06T10:25:07;10.05;;;5.32;;
77586;SDS011;66744;49.716;17.158;2023-04-06T10:28:09;9.48;;;5.68;;
77586;SDS011;66744;49.716;17.158;2023-04-06T10:31:12;7.47;;;5.57;;
77586;SDS011;66744;49.716;17.158;2023-04-06T10:34:14;8.02;;;6.18;;
77586;SDS011;66744;49.716;17.158;2023-04-06T10:37:16;8.13;;;5.68;;
77586;SDS011;66744;49.716;17.158;2023-04-06T10:40:23;9.93;;;5.90;;
77586;SDS011;66744;49.716;17.158;2023-04-06T10:43:26;15.00;;;6.78;;
77586;SDS011;66744;49.716;17.158;2023-04-06T10:46:28;9.38;;;5.85;;
77586;SDS011;66744;49.716;17.158;2023-04-06T10:49:32;9.70;;;5.97;;
77586;SDS011;66744;49.716;17.158;2023-04-06T10:52:33;10.90;;;6.25;;
77586;SDS011;66744;49.716;17.158;2023-04-06T10:55:34;11.00;;;6.55;;
77586;SDS011;66744;49.716;17.158;2023-04-06T10:58:44;10.25;;;6.22;;
77586;SDS011;66744;49.716;17.158;2023-04-06T11:01:47;11.75;;;5.70;;
77586;SDS011;66744;49.716;17.158;2023-04-06T11:04:58;7.82;;;5.35;;
77586;SDS011;66744;49.716;17.158;2023-04-06T11:08:03;10.35;;;5.95;;
77586;SDS011;66744;49.716;17.158;2023-04-06T11:14:09;10.68;;;6.63;;
77586;SDS011;66744;49.716;17.158;2023-04-06T11:17:10;9.35;;;6.03;;
77586;SDS011;66744;49.716;17.158;2023-04-06T11:20:12;7.28;;;6.00;;
77586;SDS011;66744;49.716;17.158;2023-04-06T11:23:21;9.35;;;6.50;;
77586;SDS011;66744;49.716;17.158;2023-04-06T11:26:24;7.25;;;5.78;;
77586;SDS011;66744;49.716;17.158;2023-04-06T11:29:27;10.07;;;6.00;;
77586;SDS011;66744;49.716;17.158;2023-04-06T11:32:29;8.60;;;5.70;;
77586;SDS011;66744;49.716;17.158;2023-04-06T11:35:43;9.27;;;6.45;;
77586;SDS011;66744;49.716;17.158;2023-04-06T11:38:50;7.45;;;5.57;;
77586;SDS011;66744;49.716;17.158;2023-04-06T11:42:00;10.55;;;6.40;;
77586;SDS011;66744;49.716;17.158;2023-04-06T11:45:03;12.43;;;6.10;;
77586;SDS011;66744;49.716;17.158;2023-04-06T11:48:05;13.15;;;7.22;;
77586;SDS011;66744;49.716;17.158;2023-04-06T11:51:06;8.88;;;6.15;;
77586;SDS011;66744;49.716;17.158;2023-04-06T11:54:08;10.75;;;6.25;;
77586;SDS011;66744;49.716;17.158;2023-04-06T11:57:10;11.05;;;7.35;;
77586;SDS011;66744;49.716;17.158;2023-04-06T12:00:11;7.93;;;6.05;;
77586;SDS011;66744;49.716;17.158;2023-04-06T12:03:16;8.70;;;6.03;;
77586;SDS011;66744;49.716;17.158;2023-04-06T12:06:28;11.30;;;6.13;;
77586;SDS011;66744;49.716;17.158;2023-04-06T12:09:31;9.80;;;6.20;;
77586;SDS011;66744;49.716;17.158;2023-04-06T12:12:40;11.70;;;7.28;;
77586;SDS011;66744;49.716;17.158;2023-04-06T12:15:42;9.07;;;6.30;;
77586;SDS011;66744;49.716;17.158;2023-04-06T12:18:43;7.82;;;6.10;;
77586;SDS011;66744;49.716;17.158;2023-04-06T12:21:45;9.93;;;7.13;;
77586;SDS011;66744;49.716;17.158;2023-04-06T12:24:46;11.05;;;6.95;;
77586;SDS011;66744;49.716;17.158;2023-04-06T12:27:47;9.18;;;6.60;;
77586;SDS011;66744;49.716;17.158;2023-04-06T12:30:51;10.07;;;6.90;;
77586;SDS011;66744;49.716;17.158;2023-04-06T12:33:56;9.32;;;5.95;;
77586;SDS011;66744;49.716;17.158;2023-04-06T12:36:59;9.65;;;6.68;;
77586;SDS011;66744;49.716;17.158;2023-04-06T12:40:00;10.75;;;6.82;;
77586;SDS011;66744;49.716;17.158;2023-04-06T12:43:03;9.50;;;6.63;;
77586;SDS011;66744;49.716;17.158;2023-04-06T12:46:04;8.95;;;6.53;;
77586;SDS011;66744;49.716;17.158;2023-04-06T12:49:06;9.73;;;6.13;;
77586;SDS011;66744;49.716;17.158;2023-04-06T12:52:08;8.85;;;6.50;;
77586;SDS011;66744;49.716;17.158;2023-04-06T12:55:09;9.23;;;6.38;;
77586;SDS011;66744;49.716;17.158;2023-04-06T12:58:11;11.63;;;6.93;;
77586;SDS011;66744;49.716;17.158;2023-04-06T13:01:12;9.25;;;7.10;;
77586;SDS011;66744;49.716;17.158;2023-04-06T13:04:16;10.15;;;7.43;;
77586;SDS011;66744;49.716;17.158;2023-04-06T13:07:17;9.25;;;6.45;;
77586;SDS011;66744;49.716;17.158;2023-04-06T13:10:18;9.10;;;6.80;;
77586;SDS011;66744;49.716;17.158;2023-04-06T13:13:21;14.05;;;7.28;;
77586;SDS011;66744;49.716;17.158;2023-04-06T13:16:27;8.40;;;6.13;;
77586;SDS011;66744;49.716;17.158;2023-04-06T13:19:28;10.93;;;5.93;;
77586;SDS011;66744;49.716;17.158;2023-04-06T13:22:29;9.07;;;5.78;;
77586;SDS011;66744;49.716;17.158;2023-04-06T13:25:31;9.38;;;6.40;;
77586;SDS011;66744;49.716;17.158;2023-04-06T13:28:34;7.40;;;5.90;;
77586;SDS011;66744;49.716;17.158;2023-04-06T13:31:38;8.35;;;6.57;;
77586;SDS011;66744;49.716;17.158;2023-04-06T13:34:39;8.15;;;7.05;;
77586;SDS011;66744;49.716;17.158;2023-04-06T13:37:45;9.75;;;6.22;;
77586;SDS011;66744;49.716;17.158;2023-04-06T13:40:46;9.98;;;6.80;;
77586;SDS011;66744;49.716;17.158;2023-04-06T13:43:48;9.63;;;7.47;;
77586;SDS011;66744;49.716;17.158;2023-04-06T13:46:49;10.75;;;7.13;;
77586;SDS011;66744;49.716;17.158;2023-04-06T13:49:50;9.38;;;6.85;;
77586;SDS011;66744;49.716;17.158;2023-04-06T13:52:53;12.40;;;7.53;;
77586;SDS011;66744;49.716;17.158;2023-04-06T13:55:55;10.45;;;7.70;;
77586;SDS011;66744;49.716;17.158;2023-04-06T13:58:56;9.40;;;6.38;;
77586;SDS011;66744;49.716;17.158;2023-04-06T14:01:58;12.43;;;7.45;;
77586;SDS011;66744;49.716;17.158;2023-04-06T14:04:59;12.68;;;7.57;;
77586;SDS011;66744;49.716;17.158;2023-04-06T14:08:01;12.00;;;7.57;;
77586;SDS011;66744;49.716;17.158;2023-04-06T14:11:02;10.75;;;6.93;;
77586;SDS011;66744;49.716;17.158;2023-04-06T14:14:04;10.65;;;7.75;;
77586;SDS011;66744;49.716;17.158;2023-04-06T14:17:05;14.00;;;8.57;;
77586;SDS011;66744;49.716;17.158;2023-04-06T14:20:07;10.48;;;7.10;;
77586;SDS011;66744;49.716;17.158;2023-04-06T14:23:08;12.70;;;7.85;;
77586;SDS011;66744;49.716;17.158;2023-04-06T14:26:10;10.38;;;8.15;;
77586;SDS011;66744;49.716;17.158;2023-04-06T14:29:12;12.55;;;7.80;;
77586;SDS011;66744;49.716;17.158;2023-04-06T14:32:13;12.77;;;8.13;;
77586;SDS011;66744;49.716;17.158;2023-04-06T14:35:15;12.40;;;7.80;;
77586;SDS011;66744;49.716;17.158;2023-04-06T14:38:18;10.40;;;7.68;;
77586;SDS011;66744;49.716;17.158;2023-04-06T14:41:21;10.63;;;7.10;;
77586;SDS011;66744;49.716;17.158;2023-04-06T14:44:24;12.00;;;7.07;;
77586;SDS011;66744;49.716;17.158;2023-04-06T14:47:26;9.93;;;7.53;;
77586;SDS011;66744;49.716;17.158;2023-04-06T14:50:27;12.95;;;7.68;;
77586;SDS011;66744;49.716;17.158;2023-04-06T14:53:28;11.00;;;6.95;;
77586;SDS011;66744;49.716;17.158;2023-04-06T14:56:30;10.65;;;8.07;;
77586;SDS011;66744;49.716;17.158;2023-04-06T14:59:32;9.50;;;7.28;;
77586;SDS011;66744;49.716;17.158;2023-04-06T15:02:33;11.68;;;7.07;;
77586;SDS011;66744;49.716;17.158;2023-04-06T15:05:35;9.35;;;6.82;;
77586;SDS011;66744;49.716;17.158;2023-04-06T15:08:36;9.63;;;7.03;;
77586;SDS011;66744;49.716;17.158;2023-04-06T15:11:40;10.30;;;7.20;;
77586;SDS011;66744;49.716;17.158;2023-04-06T15:14:41;10.55;;;7.68;;
77586;SDS011;66744;49.716;17.158;2023-04-06T15:17:42;11.43;;;7.72;;
77586;SDS011;66744;49.716;17.158;2023-04-06T15:20:46;10.43;;;7.40;;
77586;SDS011;66744;49.716;17.158;2023-04-06T15:23:48;12.23;;;7.53;;
77586;SDS011;66744;49.716;17.158;2023-04-06T15:26:50;11.73;;;7.35;;
77586;SDS011;66744;49.716;17.158;2023-04-06T15:29:52;13.07;;;8.50;;
77586;SDS011;66744;49.716;17.158;2023-04-06T15:32:55;14.20;;;9.35;;
77586;SDS011;66744;49.716;17.158;2023-04-06T15:35:59;13.52;;;8.93;;
77586;SDS011;66744;49.716;17.158;2023-04-06T15:39:07;12.50;;;9.50;;
77586;SDS011;66744;49.716;17.158;2023-04-06T15:42:09;12.50;;;8.38;;
77586;SDS011;66744;49.716;17.158;2023-04-06T15:45:11;11.18;;;8.07;;
77586;SDS011;66744;49.716;17.158;2023-04-06T15:48:14;14.27;;;9.88;;
77586;SDS011;66744;49.716;17.158;2023-04-06T15:51:16;14.70;;;9.15;;
77586;SDS011;66744;49.716;17.158;2023-04-06T15:54:30;14.68;;;9.40;;
77586;SDS011;66744;49.716;17.158;2023-04-06T15:57:31;16.48;;;10.40;;
77586;SDS011;66744;49.716;17.158;2023-04-06T16:00:36;14.13;;;9.93;;
77586;SDS011;66744;49.716;17.158;2023-04-06T16:03:40;15.85;;;10.77;;
77586;SDS011;66744;49.716;17.158;2023-04-06T16:06:45;14.45;;;10.38;;
77586;SDS011;66744;49.716;17.158;2023-04-06T16:10:06;15.65;;;11.20;;
77586;SDS011;66744;49.716;17.158;2023-04-06T16:23:52;17.52;;;9.95;;
77586;SDS011;66744;49.716;17.158;2023-04-06T16:26:54;11.88;;;9.25;;
77586;SDS011;66744;49.716;17.158;2023-04-06T16:30:14;13.80;;;9.40;;
77586;SDS011;66744;49.716;17.158;2023-04-06T16:37:20;13.52;;;9.10;;
77586;SDS011;66744;49.716;17.158;2023-04-06T16:40:43;14.30;;;9.07;;
77586;SDS011;66744;49.716;17.158;2023-04-06T16:43:50;13.90;;;9.40;;
77586;SDS011;66744;49.716;17.158;2023-04-06T16:46:52;15.52;;;10.48;;
77586;SDS011;66744;49.716;17.158;2023-04-06T16:50:03;15.00;;;9.73;;
77586;SDS011;66744;49.716;17.158;2023-04-06T16:53:06;12.80;;;9.23;;
77586;SDS011;66744;49.716;17.158;2023-04-06T16:56:11;11.05;;;9.25;;
77586;SDS011;66744;49.716;17.158;2023-04-06T16:59:15;15.52;;;9.55;;
77586;SDS011;66744;49.716;17.158;2023-04-06T17:02:17;14.32;;;9.15;;
77586;SDS011;66744;49.716;17.158;2023-04-06T17:05:33;13.75;;;9.55;;
77586;SDS011;66744;49.716;17.158;2023-04-06T17:08:37;14.52;;;10.55;;
77586;SDS011;66744;49.716;17.158;2023-04-06T17:11:39;15.30;;;10.60;;
77586;SDS011;66744;49.716;17.158;2023-04-06T17:14:41;12.15;;;8.65;;
77586;SDS011;66744;49.716;17.158;2023-04-06T17:17:44;13.15;;;9.02;;
77586;SDS011;66744;49.716;17.158;2023-04-06T17:20:46;14.63;;;8.82;;
77586;SDS011;66744;49.716;17.158;2023-04-06T17:23:52;16.42;;;9.88;;
77586;SDS011;66744;49.716;17.158;2023-04-06T17:26:54;12.55;;;8.20;;
77586;SDS011;66744;49.716;17.158;2023-04-06T17:29:58;12.27;;;8.90;;
77586;SDS011;66744;49.716;17.158;2023-04-06T17:33:07;12.98;;;8.20;;
77586;SDS011;66744;49.716;17.158;2023-04-06T17:36:09;14.38;;;7.90;;
77586;SDS011;66744;49.716;17.158;2023-04-06T17:39:12;11.40;;;7.53;;
77586;SDS011;66744;49.716;17.158;2023-04-06T17:42:14;12.40;;;8.18;;
77586;SDS011;66744;49.716;17.158;2023-04-06T17:45:18;15.05;;;8.98;;
77586;SDS011;66744;49.716;17.158;2023-04-06T17:48:19;12.95;;;8.75;;
77586;SDS011;66744;49.716;17.158;2023-04-06T17:51:23;13.85;;;8.63;;
77586;SDS011;66744;49.716;17.158;2023-04-06T17:54:27;11.57;;;6.53;;
77586;SDS011;66744;49.716;17.158;2023-04-06T17:57:29;10.98;;;7.30;;
77586;SDS011;66744;49.716;17.158;2023-04-06T18:00:30;12.77;;;8.43;;
77586;SDS011;66744;49.716;17.158;2023-04-06T18:03:31;17.27;;;7.55;;
77586;SDS011;66744;49.716;17.158;2023-04-06T18:06:36;11.35;;;6.93;;
77586;SDS011;66744;49.716;17.158;2023-04-06T18:09:38;11.50;;;7.10;;
77586;SDS011;66744;49.716;17.158;2023-04-06T18:12:43;11.75;;;7.63;;
77586;SDS011;66744;49.716;17.158;2023-04-06T18:15:44;12.90;;;6.57;;
77586;SDS011;66744;49.716;17.158;2023-04-06T18:18:45;13.57;;;7.10;;
77586;SDS011;66744;49.716;17.158;2023-04-06T18:21:48;9.18;;;6.03;;
77586;SDS011;66744;49.716;17.158;2023-04-06T18:24:49;11.95;;;7.90;;
77586;SDS011;66744;49.716;17.158;2023-04-06T18:27:51;9.30;;;6.40;;
77586;SDS011;66744;49.716;17.158;2023-04-06T18:30:52;9.43;;;6.47;;
77586;SDS011;66744;49.716;17.158;2023-04-06T18:33:54;9.57;;;6.20;;
77586;SDS011;66744;49.716;17.158;2023-04-06T18:36:55;13.27;;;8.38;;
77586;SDS011;66744;49.716;17.158;2023-04-06T18:39:56;11.73;;;7.05;;
77586;SDS011;66744;49.716;17.158;2023-04-06T18:42:58;12.10;;;6.60;;
77586;SDS011;66744;49.716;17.158;2023-04-06T18:46:00;14.35;;;7.90;;